Danielsville, Georgia
Current Conditions -  °F | °C
As of 4:51 PM on Friday 31 Oct 2014 (Local Time) from KAHN Reporting Station
Overcast Overcast  
Wind Chill: 61°   Ceiling: 9000
Heat Index: 61°   Visibility: 10mi
Dew Point: 40°   Wind: 14mph
Humidity: 46%   Direction: 310°NW
Pressure: 29.83"   Gusts: 21mph
Location:  34.12°N, 83.22°W
Report Text: KAHN 312051Z 31012G18KT 10SM SCT070 OVC090 16/04 A2983 RMK AO2 SLP101 T01610044 55012
Loading
Personal Weather Stations






























Interactive Weather Map
Tropical Storm Tracking
New forecast layout! Learn more

10-Day Weather Forecast

Advertisements
Track Severe Weather on mobile